createdAt,value
2022-10-31T00:00:46.515Z,18.67
2022-10-31T00:03:13.195Z,25.75
2022-10-31T00:05:44.667Z,28.33
2022-10-31T00:08:11.191Z,18.83
2022-10-31T00:10:42.199Z,21.83
2022-10-31T00:13:10.540Z,22.27
2022-10-31T00:15:41.425Z,31.42
2022-10-31T00:18:09.834Z,21.00
2022-10-31T00:20:36.467Z,23.52
2022-10-31T00:23:04.654Z,15.82
2022-10-31T00:25:36.691Z,16.80
2022-10-31T00:28:07.422Z,19.95
2022-10-31T00:30:34.793Z,21.17
2022-10-31T00:33:01.864Z,24.05
2022-10-31T00:35:28.716Z,20.00
2022-10-31T00:37:55.254Z,18.30
2022-10-31T00:40:21.862Z,23.85
2022-10-31T00:42:48.426Z,25.75
2022-10-31T00:45:15.058Z,19.50
2022-10-31T00:47:41.648Z,16.30
2022-10-31T00:50:08.838Z,23.77
2022-10-31T00:52:35.687Z,22.55
2022-10-31T00:55:02.278Z,21.15
2022-10-31T00:57:28.792Z,20.25
2022-10-31T00:59:55.356Z,17.77
2022-10-31T01:02:22.342Z,17.35
2022-10-31T01:04:49.073Z,22.77
2022-10-31T01:07:15.711Z,26.52
2022-10-31T01:09:42.412Z,21.42
2022-10-31T01:12:09.230Z,23.42
2022-10-31T01:14:35.836Z,23.17
2022-10-31T01:17:02.507Z,19.90
2022-10-31T01:19:29.034Z,21.83
2022-10-31T01:21:56.281Z,21.60
2022-10-31T01:24:23.019Z,19.83
2022-10-31T01:26:49.560Z,21.77
2022-10-31T01:29:16.422Z,23.85
2022-10-31T01:31:42.998Z,23.88
2022-10-31T01:34:14.722Z,24.42
2022-10-31T01:36:41.379Z,23.73
2022-10-31T01:39:12.964Z,24.48
2022-10-31T01:41:45.284Z,23.23
2022-10-31T01:44:14.811Z,22.88
2022-10-31T01:47:06.187Z,21.75
2022-10-31T01:49:52.454Z,27.90
2022-10-31T01:52:41.409Z,24.50
2022-10-31T01:55:17.611Z,23.27
2022-10-31T01:57:48.997Z,25.15
2022-10-31T02:00:16.201Z,23.13
2022-10-31T02:02:43.752Z,19.70
2022-10-31T02:05:16.950Z,21.88
2022-10-31T02:07:55.132Z,19.73
2022-10-31T02:10:24.154Z,26.23
2022-10-31T02:12:56.179Z,25.92
2022-10-31T02:15:22.988Z,28.85
2022-10-31T02:17:49.961Z,25.90
2022-10-31T02:20:22.486Z,26.23
2022-10-31T02:23:07.051Z,24.58
2022-10-31T02:26:04.270Z,31.58
2022-10-31T02:28:36.986Z,24.98
2022-10-31T02:31:44.540Z,27.15
2022-10-31T02:34:36.391Z,22.63
2022-10-31T02:37:19.421Z,29.60
2022-10-31T02:39:51.655Z,22.52
2022-10-31T02:42:39.743Z,26.60
2022-10-31T02:45:29.218Z,28.80
2022-10-31T02:48:01.651Z,32.72
2022-10-31T02:50:35.020Z,31.08
2022-10-31T02:53:02.838Z,25.73
2022-10-31T02:55:29.357Z,23.35
2022-10-31T02:58:08.719Z,32.53
2022-10-31T03:00:52.120Z,28.58
2022-10-31T03:03:44.711Z,31.48
2022-10-31T03:06:40.187Z,23.73
2022-10-31T03:09:33.113Z,29.42
2022-10-31T03:12:14.912Z,24.42
2022-10-31T03:14:54.594Z,23.25
2022-10-31T03:17:32.996Z,28.90
2022-10-31T03:20:01.455Z,32.83
2022-10-31T03:22:31.932Z,27.13
2022-10-31T03:25:01.128Z,27.58
2022-10-31T03:27:31.086Z,26.75
2022-10-31T03:30:02.716Z,24.70
2022-10-31T03:32:36.696Z,24.02
2022-10-31T03:35:06.176Z,29.17
2022-10-31T03:37:36.149Z,33.47
2022-10-31T03:40:06.276Z,28.08
2022-10-31T03:42:35.703Z,32.38
2022-10-31T03:45:12.716Z,26.98
2022-10-31T03:47:40.382Z,22.45
2022-10-31T03:50:09.533Z,33.13
2022-10-31T03:52:47.932Z,31.30
2022-10-31T03:55:25.759Z,27.27
2022-10-31T03:58:05.013Z,25.77
2022-10-31T04:00:34.674Z,37.45
2022-10-31T04:03:06.083Z,30.48
2022-10-31T04:05:34.059Z,27.00
2022-10-31T04:08:02.989Z,27.35
2022-10-31T04:10:33.169Z,36.88
2022-10-31T04:13:09.097Z,47.20
2022-10-31T04:15:37.880Z,38.10
2022-10-31T04:18:05.975Z,37.33
2022-10-31T04:20:36.544Z,41.78
2022-10-31T04:23:04.363Z,36.88
2022-10-31T04:25:30.941Z,47.78
2022-10-31T04:27:57.968Z,34.63
2022-10-31T04:30:24.818Z,31.23
2022-10-31T04:32:51.390Z,37.03
2022-10-31T04:35:17.992Z,36.58
2022-10-31T04:37:44.588Z,35.70
2022-10-31T04:40:11.802Z,40.30
2022-10-31T04:42:38.357Z,46.05
2022-10-31T04:45:05.440Z,31.55
2022-10-31T04:47:34.237Z,38.53
2022-10-31T04:50:01.345Z,38.30
2022-10-31T04:52:27.921Z,37.20
2022-10-31T04:54:54.534Z,40.58
2022-10-31T04:57:21.095Z,42.70
2022-10-31T04:59:47.698Z,40.08
2022-10-31T05:02:14.364Z,40.72
2022-10-31T05:04:46.127Z,41.25
2022-10-31T05:07:12.700Z,38.10
2022-10-31T05:09:39.238Z,34.97
2022-10-31T05:12:05.948Z,36.33
2022-10-31T05:14:32.514Z,39.08
2022-10-31T05:16:59.021Z,37.80
2022-10-31T05:19:25.558Z,39.33
2022-10-31T05:21:52.112Z,36.42
2022-10-31T05:24:18.656Z,35.30
2022-10-31T05:26:45.169Z,32.38
2022-10-31T05:29:11.700Z,33.08
2022-10-31T05:31:38.282Z,29.13
2022-10-31T05:34:04.948Z,36.70
2022-10-31T05:36:31.507Z,36.95
2022-10-31T05:38:58.110Z,33.30
2022-10-31T05:41:24.948Z,34.90
2022-10-31T05:43:51.715Z,32.28
2022-10-31T05:46:18.292Z,29.65
2022-10-31T05:48:44.871Z,29.38
2022-10-31T05:51:13.046Z,26.77
2022-10-31T05:53:39.582Z,27.77
2022-10-31T05:56:06.263Z,33.90
2022-10-31T05:58:32.816Z,24.08
2022-10-31T06:00:59.361Z,34.83
2022-10-31T06:03:25.907Z,33.83
2022-10-31T06:05:55.118Z,26.85
2022-10-31T06:08:22.132Z,27.60
2022-10-31T06:10:48.815Z,31.83
2022-10-31T06:13:15.340Z,32.33
2022-10-31T06:15:43.018Z,37.90
2022-10-31T06:18:09.874Z,30.00
2022-10-31T06:20:36.467Z,24.38
2022-10-31T06:23:04.310Z,32.17
2022-10-31T06:25:31.443Z,25.30
2022-10-31T06:27:58.334Z,30.45
2022-10-31T06:33:16.218Z,23.27
2022-10-31T06:35:48.891Z,24.70
2022-10-31T06:38:15.655Z,27.33
2022-10-31T06:40:42.437Z,22.35
2022-10-31T06:43:09.040Z,24.30
2022-10-31T06:45:35.595Z,26.27
2022-10-31T06:48:18.404Z,21.33
2022-10-31T06:50:45.559Z,24.95
2022-10-31T06:53:13.529Z,23.05
2022-10-31T06:55:42.016Z,29.40
2022-10-31T06:58:10.934Z,29.85
2022-10-31T07:00:44.650Z,29.38
2022-10-31T07:03:13.246Z,30.00
2022-10-31T07:05:40.741Z,32.33
2022-10-31T07:08:10.219Z,24.55
2022-10-31T07:10:40.532Z,26.00
2022-10-31T07:13:15.001Z,29.45
2022-10-31T07:15:43.429Z,33.10
2022-10-31T07:18:11.797Z,35.10
2022-10-31T07:20:38.754Z,27.92
2022-10-31T07:23:05.969Z,21.80
2022-10-31T07:25:32.875Z,24.67
2022-10-31T07:27:59.828Z,30.00
2022-10-31T07:30:26.707Z,27.95
2022-10-31T07:32:53.379Z,23.00
2022-10-31T07:35:23.886Z,25.67
2022-10-31T07:37:50.690Z,30.70
2022-10-31T07:40:18.813Z,31.42
2022-10-31T07:42:47.655Z,24.85
2022-10-31T07:45:16.899Z,26.10
2022-10-31T07:47:51.671Z,18.63
2022-10-31T07:50:21.263Z,37.50
2022-10-31T07:52:48.106Z,25.27
2022-10-31T07:55:15.423Z,22.00
2022-10-31T07:57:41.938Z,28.63
2022-10-31T08:00:10.560Z,60.00
2022-10-31T08:02:37.201Z,26.02
2022-10-31T08:05:04.031Z,17.55
2022-10-31T08:07:30.707Z,24.38
2022-10-31T08:09:57.331Z,16.42
2022-10-31T08:12:23.951Z,38.45
2022-10-31T08:14:51.394Z,28.95
2022-10-31T08:17:17.948Z,20.52
2022-10-31T08:19:46.771Z,22.08
2022-10-31T08:22:13.270Z,19.65
2022-10-31T08:27:11.235Z,15.93
2022-10-31T08:29:37.782Z,15.88
2022-10-31T08:32:04.552Z,19.10
2022-10-31T08:34:31.092Z,20.00
2022-10-31T08:36:57.737Z,15.32
2022-10-31T08:39:24.314Z,21.42
2022-10-31T08:41:51.508Z,16.88
2022-10-31T08:44:18.131Z,22.88
2022-10-31T08:46:44.922Z,18.77
2022-10-31T08:49:11.479Z,17.58
2022-10-31T08:51:38.103Z,18.20
2022-10-31T08:54:04.683Z,22.98
2022-10-31T08:56:31.332Z,26.25
2022-10-31T08:58:58.026Z,16.02
2022-10-31T09:01:24.671Z,18.75
2022-10-31T09:03:51.327Z,17.38
2022-10-31T09:06:18.615Z,20.42
2022-10-31T09:08:45.323Z,16.70
2022-10-31T09:11:12.089Z,16.05
2022-10-31T09:13:41.437Z,17.98
2022-10-31T09:16:08.627Z,19.02
2022-10-31T09:18:35.372Z,17.00
2022-10-31T09:21:02.643Z,15.18
2022-10-31T09:23:29.509Z,20.75
2022-10-31T09:25:56.513Z,17.85
2022-10-31T09:28:24.678Z,17.85
2022-10-31T09:30:53.245Z,18.92
2022-10-31T09:33:20.682Z,15.57
2022-10-31T09:35:47.828Z,18.05
2022-10-31T09:38:16.890Z,16.73
2022-10-31T09:40:46.754Z,14.18
2022-10-31T09:43:21.921Z,16.13
2022-10-31T09:46:02.786Z,13.40
2022-10-31T09:48:59.111Z,14.25
2022-10-31T09:51:34.071Z,17.85
2022-10-31T09:54:18.509Z,12.85
2022-10-31T09:56:45.408Z,16.08
2022-10-31T09:59:22.633Z,14.95
2022-10-31T10:02:01.622Z,14.15
2022-10-31T10:04:31.780Z,13.40
2022-10-31T10:07:01.129Z,17.45
2022-10-31T10:09:28.598Z,15.48
2022-10-31T10:12:41.968Z,15.23
2022-10-31T10:15:35.118Z,17.55
2022-10-31T10:18:22.658Z,12.88
2022-10-31T10:21:20.343Z,14.48
2022-10-31T10:23:52.742Z,16.30
2022-10-31T10:26:22.448Z,12.75
2022-10-31T10:29:15.147Z,15.80
2022-10-31T10:31:43.987Z,17.25
2022-10-31T10:34:31.202Z,12.88
2022-10-31T10:37:03.451Z,13.95
2022-10-31T10:39:44.378Z,12.90
2022-10-31T10:42:34.360Z,15.07
2022-10-31T10:45:24.497Z,13.75
2022-10-31T10:48:21.513Z,15.80
2022-10-31T10:50:52.258Z,14.00
2022-10-31T10:54:03.237Z,19.60
2022-10-31T10:56:46.082Z,17.35
2022-10-31T10:59:16.576Z,13.73
2022-10-31T11:01:43.460Z,15.77
2022-10-31T11:04:34.632Z,12.45
2022-10-31T11:07:13.507Z,16.35
2022-10-31T11:09:40.055Z,16.63
2022-10-31T11:12:10.597Z,15.38
2022-10-31T11:14:54.502Z,15.10
2022-10-31T11:17:29.290Z,17.80
2022-10-31T11:20:25.080Z,17.73
2022-10-31T11:23:03.400Z,14.02
2022-10-31T11:25:29.968Z,14.70
2022-10-31T11:28:01.582Z,16.83
2022-10-31T11:30:29.622Z,16.23
2022-10-31T11:32:57.209Z,14.32
2022-10-31T11:35:26.392Z,16.45
2022-10-31T11:37:55.311Z,10.18
2022-10-31T11:40:27.534Z,14.75
2022-10-31T11:42:58.326Z,10.15
2022-10-31T11:45:24.832Z,13.55
2022-10-31T11:47:59.644Z,9.82
2022-10-31T11:50:37.803Z,10.35
2022-10-31T11:53:05.108Z,11.57
2022-10-31T11:55:37.546Z,12.65
2022-10-31T11:58:05.291Z,12.52
2022-10-31T12:00:37.768Z,13.40
2022-10-31T12:03:41.112Z,11.55
2022-10-31T12:06:22.654Z,13.27
2022-10-31T12:08:49.396Z,14.30
2022-10-31T12:11:27.686Z,11.98
2022-10-31T12:14:04.240Z,12.55
2022-10-31T12:17:12.317Z,12.65
2022-10-31T12:20:08.377Z,9.35
2022-10-31T12:22:53.817Z,13.43
2022-10-31T12:25:35.956Z,13.90
2022-10-31T12:28:11.161Z,11.85
2022-10-31T12:30:44.724Z,15.23
2022-10-31T12:33:40.813Z,10.57
2022-10-31T12:36:38.921Z,11.40
2022-10-31T12:39:30.028Z,10.68
2022-10-31T12:42:27.458Z,8.13
2022-10-31T12:45:52.759Z,10.32
2022-10-31T12:48:46.368Z,14.10
2022-10-31T12:51:30.380Z,9.57
2022-10-31T12:54:30.647Z,9.85
2022-10-31T12:57:03.204Z,10.43
2022-10-31T12:59:35.868Z,9.35
2022-10-31T13:02:21.310Z,11.52
2022-10-31T13:04:59.271Z,9.30
2022-10-31T13:07:50.390Z,9.52
2022-10-31T13:10:26.530Z,10.90
2022-10-31T13:13:00.200Z,12.45
2022-10-31T13:15:31.219Z,9.35
2022-10-31T13:18:01.385Z,14.20
2022-10-31T13:20:39.049Z,12.15
2022-10-31T13:23:44.646Z,12.55
2022-10-31T13:26:25.474Z,8.00
2022-10-31T13:29:14.808Z,9.60
2022-10-31T13:31:43.073Z,11.13
2022-10-31T13:34:30.519Z,8.73
2022-10-31T13:37:22.560Z,10.93
2022-10-31T13:40:31.598Z,10.15
2022-10-31T13:43:12.517Z,11.70
2022-10-31T13:45:52.619Z,17.40
2022-10-31T13:48:28.318Z,9.95
2022-10-31T13:51:00.975Z,11.07
2022-10-31T13:53:46.293Z,14.60
2022-10-31T13:56:19.114Z,12.23
2022-10-31T13:59:18.078Z,13.30
2022-10-31T14:02:02.497Z,9.80
2022-10-31T14:04:45.444Z,8.32
2022-10-31T14:07:22.047Z,14.63
2022-10-31T14:09:57.033Z,11.95
2022-10-31T14:12:27.899Z,13.25
2022-10-31T14:15:00.799Z,18.08
2022-10-31T14:17:34.801Z,15.15
2022-10-31T14:20:13.294Z,11.40
2022-10-31T14:22:42.877Z,14.52
2022-10-31T14:25:45.079Z,13.55
2022-10-31T14:28:34.102Z,14.63
2022-10-31T14:31:01.564Z,12.20
2022-10-31T14:33:30.599Z,15.68
2022-10-31T14:36:22.817Z,12.38
2022-10-31T14:38:58.095Z,13.50
2022-10-31T14:41:33.814Z,16.10
2022-10-31T14:44:16.099Z,18.23
2022-10-31T14:46:47.962Z,13.07
2022-10-31T14:49:49.779Z,16.85
2022-10-31T14:52:19.172Z,16.73
2022-10-31T14:54:51.906Z,14.10
2022-10-31T14:57:29.322Z,15.23
2022-10-31T15:00:09.129Z,11.77
2022-10-31T15:02:53.795Z,18.77
2022-10-31T15:05:21.678Z,12.45
2022-10-31T15:07:59.561Z,19.83
2022-10-31T15:10:30.725Z,18.70
2022-10-31T15:13:09.095Z,13.77
2022-10-31T15:15:36.109Z,14.35
2022-10-31T15:18:05.784Z,12.98
2022-10-31T15:20:42.562Z,11.32
2022-10-31T15:23:15.102Z,11.10
2022-10-31T15:25:42.215Z,13.27
2022-10-31T15:28:24.156Z,12.15
2022-10-31T15:30:52.841Z,15.40
2022-10-31T15:33:26.019Z,14.23
2022-10-31T15:36:00.608Z,13.38
2022-10-31T15:38:28.726Z,20.08
2022-10-31T15:41:04.827Z,16.73
2022-10-31T15:43:39.085Z,16.38
2022-10-31T15:46:09.711Z,22.98
2022-10-31T15:48:36.549Z,21.33
2022-10-31T15:51:03.416Z,20.98
2022-10-31T15:53:54.479Z,23.10
2022-10-31T15:56:30.919Z,19.90
2022-10-31T15:58:59.587Z,19.45
2022-10-31T16:01:33.971Z,19.00
2022-10-31T16:04:22.958Z,17.10
2022-10-31T16:07:21.773Z,18.05
2022-10-31T16:09:50.635Z,18.55
2022-10-31T16:12:21.449Z,21.52
2022-10-31T16:14:51.005Z,13.77
2022-10-31T16:17:21.928Z,15.68
2022-10-31T16:19:58.487Z,12.05
2022-10-31T16:22:35.569Z,15.80
2022-10-31T16:25:08.022Z,14.82
2022-10-31T16:27:38.071Z,19.52
2022-10-31T16:30:36.547Z,16.63
2022-10-31T16:33:03.468Z,17.55
2022-10-31T16:35:39.039Z,12.48
2022-10-31T16:38:06.145Z,14.27
2022-10-31T16:40:33.841Z,14.70
2022-10-31T16:43:01.451Z,14.60
2022-10-31T16:45:33.733Z,14.88
2022-10-31T16:48:09.872Z,13.38
2022-10-31T16:50:37.879Z,15.43
2022-10-31T16:53:20.270Z,21.88
2022-10-31T16:55:56.293Z,17.33
2022-10-31T16:58:30.526Z,15.98
2022-10-31T17:00:58.094Z,15.35
2022-10-31T17:03:25.113Z,21.23
2022-10-31T17:05:51.685Z,17.65
2022-10-31T17:08:18.378Z,17.83
2022-10-31T17:10:47.879Z,20.27
2022-10-31T17:13:21.901Z,21.55
2022-10-31T17:15:51.776Z,22.27
2022-10-31T17:18:21.665Z,21.02
2022-10-31T17:21:00.112Z,21.98
2022-10-31T17:23:28.066Z,21.75
2022-10-31T17:25:54.978Z,24.13
2022-10-31T17:28:21.950Z,27.23
2022-10-31T17:30:48.992Z,25.23
2022-10-31T17:33:17.025Z,24.20
2022-10-31T17:35:44.818Z,20.88
2022-10-31T17:38:13.367Z,20.52
2022-10-31T17:40:42.150Z,22.55
2022-10-31T17:43:10.342Z,23.02
2022-10-31T17:45:40.431Z,23.30
2022-10-31T17:48:09.286Z,21.50
2022-10-31T17:50:36.340Z,28.98
2022-10-31T17:53:03.430Z,20.33
2022-10-31T17:55:36.048Z,20.73
2022-10-31T17:58:04.466Z,23.83
2022-10-31T18:00:31.029Z,18.77
2022-10-31T18:02:57.749Z,16.55
2022-10-31T18:05:24.361Z,21.63
2022-10-31T18:07:51.173Z,20.42
2022-10-31T18:10:18.061Z,20.98
2022-10-31T18:12:44.666Z,15.88
2022-10-31T18:15:11.602Z,24.33
2022-10-31T18:17:41.996Z,19.70
2022-10-31T18:20:09.881Z,20.70
2022-10-31T18:22:36.481Z,15.35
2022-10-31T18:25:04.364Z,17.55
2022-10-31T18:27:31.013Z,21.88
2022-10-31T18:29:57.549Z,16.58
2022-10-31T18:32:24.110Z,19.58
2022-10-31T18:34:50.655Z,18.77
2022-10-31T18:37:17.275Z,19.48
2022-10-31T18:39:43.858Z,21.50
2022-10-31T18:42:10.441Z,15.32
2022-10-31T18:44:38.080Z,23.83
2022-10-31T18:47:04.732Z,20.42
2022-10-31T18:49:32.877Z,23.17
2022-10-31T18:52:00.081Z,21.23
2022-10-31T18:54:26.865Z,20.00
2022-10-31T18:56:53.541Z,21.02
2022-10-31T18:59:20.061Z,17.80
2022-10-31T19:01:46.794Z,21.85
2022-10-31T19:04:13.824Z,20.23
2022-10-31T19:06:40.486Z,16.48
2022-10-31T19:09:10.955Z,15.80
2022-10-31T19:11:38.830Z,20.90
2022-10-31T19:14:08.210Z,21.38
2022-10-31T19:16:35.434Z,16.55
2022-10-31T19:19:02.080Z,22.27
2022-10-31T19:21:31.015Z,23.65
2022-10-31T19:23:58.130Z,20.60
2022-10-31T19:26:26.057Z,21.98
2022-10-31T19:28:53.364Z,17.15
2022-10-31T19:31:19.921Z,22.20
2022-10-31T19:33:47.215Z,25.58
2022-10-31T19:36:18.680Z,20.27
2022-10-31T19:38:47.726Z,20.13
2022-10-31T19:41:20.680Z,24.08
2022-10-31T19:43:47.693Z,22.58
2022-10-31T19:46:27.804Z,24.77
2022-10-31T19:49:00.918Z,22.77
2022-10-31T19:51:27.767Z,23.83
2022-10-31T19:53:56.551Z,21.45
2022-10-31T19:56:24.910Z,21.92
2022-10-31T19:58:51.778Z,25.30
2022-10-31T20:01:23.475Z,24.70
2022-10-31T20:03:50.490Z,23.90
2022-10-31T20:06:29.146Z,34.35
2022-10-31T20:08:57.983Z,20.73
2022-10-31T20:11:26.271Z,22.40
2022-10-31T20:13:56.144Z,24.25
2022-10-31T20:16:23.094Z,19.83
2022-10-31T20:18:49.817Z,22.63
2022-10-31T20:24:11.287Z,29.65
2022-10-31T20:26:40.598Z,24.30
2022-10-31T20:29:07.576Z,24.40
2022-10-31T20:31:36.676Z,21.58
2022-10-31T20:34:03.730Z,30.50
2022-10-31T20:36:30.874Z,27.10
2022-10-31T20:38:58.612Z,28.80
2022-10-31T20:41:25.652Z,29.42
2022-10-31T20:43:52.601Z,24.98
2022-10-31T20:46:25.437Z,27.15
2022-10-31T20:48:53.411Z,26.50
2022-10-31T20:51:27.889Z,25.40
2022-10-31T20:53:56.475Z,20.80
2022-10-31T20:56:25.142Z,32.03
2022-10-31T20:58:53.233Z,24.25
2022-10-31T21:01:22.264Z,18.00
2022-10-31T21:03:49.628Z,18.73
2022-10-31T21:06:18.143Z,17.70
2022-10-31T21:08:44.741Z,19.15
2022-10-31T21:11:16.816Z,20.38
2022-10-31T21:13:45.928Z,23.85
2022-10-31T21:16:18.674Z,21.70
2022-10-31T21:18:47.377Z,20.83
2022-10-31T21:21:32.110Z,19.30
2022-10-31T21:24:05.000Z,20.55
2022-10-31T21:26:35.483Z,23.67
2022-10-31T21:29:02.899Z,17.15
2022-10-31T21:31:29.982Z,18.77
2022-10-31T21:33:56.775Z,23.63
2022-10-31T21:36:23.621Z,22.90
2022-10-31T21:38:54.193Z,18.10
2022-10-31T21:41:21.681Z,24.05
2022-10-31T21:43:50.300Z,23.27
2022-10-31T21:46:19.988Z,20.92
2022-10-31T21:48:47.206Z,23.20
2022-10-31T21:54:28.818Z,21.23
2022-10-31T21:56:57.005Z,21.73
2022-10-31T21:59:24.352Z,22.92
2022-10-31T22:01:51.596Z,23.83
2022-10-31T22:04:19.204Z,24.50
2022-10-31T22:06:46.204Z,26.17
2022-10-31T22:09:14.544Z,27.17
2022-10-31T22:11:42.062Z,24.17
2022-10-31T22:14:12.526Z,32.45
2022-10-31T22:16:39.832Z,23.17
2022-10-31T22:19:07.698Z,30.45
2022-10-31T22:21:43.224Z,28.35
2022-10-31T22:24:10.311Z,24.45
2022-10-31T22:26:37.602Z,26.90
2022-10-31T22:29:07.478Z,28.23
2022-10-31T22:31:34.514Z,28.63
2022-10-31T22:34:01.161Z,31.15
2022-10-31T22:36:30.335Z,20.77
2022-10-31T22:38:58.038Z,24.40
2022-10-31T22:41:27.451Z,21.15
2022-10-31T22:43:54.975Z,27.40
2022-10-31T22:46:24.375Z,25.90
2022-10-31T22:48:53.856Z,26.80
2022-10-31T22:51:22.804Z,27.15
2022-10-31T22:53:50.778Z,24.55
2022-10-31T22:56:20.254Z,26.80
2022-10-31T22:58:47.603Z,26.52
2022-10-31T23:01:17.707Z,26.50
2022-10-31T23:03:45.002Z,28.77
2022-10-31T23:06:13.757Z,26.58
2022-10-31T23:08:41.111Z,24.30
2022-10-31T23:11:22.533Z,26.42
2022-10-31T23:14:09.945Z,26.30
2022-10-31T23:16:40.797Z,25.88
2022-10-31T23:19:09.326Z,24.45
2022-10-31T23:21:54.782Z,23.35
2022-10-31T23:24:28.444Z,27.20
2022-10-31T23:27:09.657Z,27.33
2022-10-31T23:29:37.590Z,24.10
2022-10-31T23:32:06.184Z,25.83
2022-10-31T23:34:32.846Z,23.98
2022-10-31T23:36:59.542Z,24.27
2022-10-31T23:39:26.187Z,27.13
2022-10-31T23:41:52.732Z,23.73
2022-10-31T23:44:19.354Z,30.48
2022-10-31T23:46:46.011Z,28.52
2022-10-31T23:49:12.682Z,27.33
2022-10-31T23:51:39.859Z,21.60
2022-10-31T23:54:06.638Z,25.73
2022-10-31T23:56:33.172Z,25.77
2022-10-31T23:58:59.849Z,25.27
